Aérodrome :
LOGIN :

S'inscrire | Disclaimer

   EN    FR    IT 

 










Légende :    VFR   VFR Marginal   IFR   IFR Intensif   IFR Très Intensif
Visi : 
Plafond : 
>= 8 km
>= 3000ft
5 à 8 km
1000 à 3000 ft
1500m à 5 km
500 à 1000 ft
800 à 1500m
200 à 500 ft
< 800m
< 200 ft
Symboles :   Orages  Brouillard  Fortes neiges  Fortes précipitations  Vent > 20 kt
SIGMETs :   Divers  Orages  Givrage  Turbulence  Onde Orograph.  Cendres Volcan.







- Altitude de l'aérodrome : 3 ft
- Code IATA : DHR


EHKD - Den Helder De Kooy

DERNIER METAR :
  • 211255Z AUTO 01010KT 330V050 9999 NCD 24/14 Q1012 BLU 36010KT CAVOK

METARs EXPIRÉS :
  • 211225Z AUTO 04010KT 360V080 9999 NCD 24/15 Q1012 BLU 02010KT CAVOK
  • 211155Z AUTO 04011KT 360V080 9999 NCD 23/14 Q1012 BLU 02010KT CAVOK
  • 211129Z AUTO 04011KT 360V070 9999 NCD 24/15 Q1012 BLU 02010KT CAVOK
  • 211125Z AUTO 04011KT 360V090 9999 NCD 24/15 Q1012 BLU
  • 211055Z AUTO 04011KT 360V090 9999 NCD 23/16 Q1011 BLU
  • 211025Z AUTO 03010KT 350V070 9999 NCD 23/15 Q1012 BLU

TAF TAF EHKD
Valide du 21 à 13h jusqu'au 22 à 01h UTC


211247Z 2113/2201 03010KT CAVOK
Pas de NOTAMs connus pour ce terrain.



MET'MAP, la Météo Aéronautique d'un coup d'oeil ! - Copyright ORBIFLY Décembre 2007 - Disclaimer

ORBIFLY MET'MAP TEAM :

Programmation & Développement : Alexandra Zaïnal
Conception & Développement : Baudouin d'Aumeries
Co-Programmation & Développement : Marc-Olivier Méhu
Soutien technique & logistique : Manuel Goepfert

Contact : metmap@orbifly.com




SOURCES & CREDITS :

   NOAA